createdAt,value
2023-01-04T00:01:22.991Z,72.12
2023-01-04T00:03:50.418Z,72.38
2023-01-04T00:06:18.029Z,72.75
2023-01-04T00:08:44.742Z,72.74
2023-01-04T00:11:21.433Z,72.43
2023-01-04T00:13:50.090Z,73.42
2023-01-04T00:16:20.748Z,73.12
2023-01-04T00:18:48.043Z,72.90
2023-01-04T00:21:17.368Z,72.56
2023-01-04T00:23:48.409Z,72.43
2023-01-04T00:26:21.922Z,72.21
2023-01-04T00:28:54.599Z,72.58
2023-01-04T00:31:22.770Z,72.71
2023-01-04T00:33:50.474Z,72.05
2023-01-04T00:36:17.041Z,72.62
2023-01-04T00:38:43.586Z,72.37
2023-01-04T00:41:34.421Z,72.66
2023-01-04T00:43:59.759Z,72.70
2023-01-04T00:46:26.331Z,72.41
2023-01-04T00:48:56.746Z,72.30
2023-01-04T00:51:28.829Z,72.26
2023-01-04T00:53:55.611Z,71.78
2023-01-04T00:56:22.535Z,71.88
2023-01-04T00:58:48.987Z,72.20
2023-01-04T01:01:15.497Z,71.87
2023-01-04T01:03:44.335Z,71.75
2023-01-04T01:06:12.174Z,71.00
2023-01-04T01:08:38.700Z,71.31
2023-01-04T01:11:08.591Z,70.78
2023-01-04T01:13:36.391Z,70.39
2023-01-04T01:16:12.991Z,70.83
2023-01-04T01:18:40.753Z,71.73
2023-01-04T01:21:26.975Z,70.63
2023-01-04T01:23:55.574Z,70.59
2023-01-04T01:26:24.616Z,70.98
2023-01-04T01:28:51.877Z,71.07
2023-01-04T01:31:25.372Z,70.60
2023-01-04T01:33:55.712Z,71.08
2023-01-04T01:36:24.748Z,70.97
2023-01-04T01:38:51.480Z,70.67
2023-01-04T01:41:33.589Z,70.35
2023-01-04T01:44:26.511Z,70.23
2023-01-04T01:46:55.162Z,70.74
2023-01-04T01:49:32.541Z,70.96
2023-01-04T01:52:11.433Z,70.56
2023-01-04T01:54:47.045Z,70.40
2023-01-04T01:57:26.913Z,70.06
2023-01-04T01:59:59.541Z,70.12
2023-01-04T02:02:26.217Z,70.41
2023-01-04T02:04:54.557Z,70.15
2023-01-04T02:07:26.526Z,70.08
2023-01-04T02:09:55.629Z,70.20
2023-01-04T02:12:22.300Z,70.30
2023-01-04T02:14:51.491Z,70.36
2023-01-04T02:17:39.111Z,70.37
2023-01-04T02:20:35.195Z,70.12
2023-01-04T02:23:46.845Z,70.47
2023-01-04T02:26:43.781Z,71.35
2023-01-04T02:29:57.431Z,71.11
2023-01-04T02:32:51.979Z,70.94
2023-01-04T02:35:53.317Z,71.22
2023-01-04T02:38:36.343Z,72.00
2023-01-04T02:41:34.010Z,71.96
2023-01-04T02:44:23.693Z,73.34
2023-01-04T02:47:49.634Z,72.70
2023-01-04T02:50:30.876Z,72.94
2023-01-04T02:53:02.064Z,72.57
2023-01-04T02:55:46.996Z,71.97
2023-01-04T02:58:59.946Z,71.96
2023-01-04T03:02:09.989Z,71.90
2023-01-04T03:05:18.773Z,72.40
2023-01-04T03:08:30.222Z,72.73
2023-01-04T03:11:29.996Z,72.69
2023-01-04T03:14:32.014Z,72.31
2023-01-04T03:17:08.694Z,72.14
2023-01-04T03:19:54.801Z,71.85
2023-01-04T03:23:00.989Z,72.02
2023-01-04T03:25:58.824Z,72.96
2023-01-04T03:28:49.720Z,72.99
2023-01-04T03:31:45.634Z,73.13
2023-01-04T03:34:31.389Z,72.79
2023-01-04T03:37:39.692Z,72.55
2023-01-04T03:40:49.587Z,72.96
2023-01-04T03:43:41.891Z,72.96
2023-01-04T03:46:58.080Z,72.56
2023-01-04T03:49:33.577Z,72.83
2023-01-04T03:52:05.863Z,73.03
2023-01-04T03:54:39.847Z,73.08
2023-01-04T03:57:09.096Z,73.10
2023-01-04T03:59:48.052Z,72.91
2023-01-04T04:02:19.247Z,72.89
2023-01-04T04:05:05.037Z,73.25
2023-01-04T04:07:50.409Z,72.78
2023-01-04T04:10:17.021Z,73.21
2023-01-04T04:12:43.510Z,72.32
2023-01-04T04:15:10.388Z,73.11
2023-01-04T04:17:36.861Z,73.22
2023-01-04T04:20:03.997Z,73.70
2023-01-04T04:22:30.429Z,73.65
2023-01-04T04:24:56.900Z,73.54
2023-01-04T04:27:23.368Z,73.55
2023-01-04T04:29:49.912Z,73.10
2023-01-04T04:32:16.485Z,73.17
2023-01-04T04:34:42.980Z,72.92
2023-01-04T04:37:09.566Z,73.23
2023-01-04T04:39:36.062Z,72.97
2023-01-04T04:42:02.781Z,72.70
2023-01-04T04:44:29.231Z,73.08
2023-01-04T04:46:55.692Z,73.19
2023-01-04T04:49:22.249Z,73.31
2023-01-04T04:51:48.793Z,73.18
2023-01-04T04:54:20.075Z,73.05
2023-01-04T04:56:48.321Z,73.15
2023-01-04T04:59:15.751Z,73.25
2023-01-04T05:01:42.385Z,73.39
2023-01-04T05:04:09.373Z,73.52
2023-01-04T05:06:35.879Z,73.84
2023-01-04T05:09:02.422Z,73.56
2023-01-04T05:11:47.693Z,74.17
2023-01-04T05:14:14.158Z,73.92
2023-01-04T05:16:40.704Z,73.84
2023-01-04T05:19:07.231Z,73.94
2023-01-04T05:21:33.732Z,73.79
2023-01-04T05:24:00.207Z,73.94
2023-01-04T05:26:26.739Z,74.33
2023-01-04T05:28:54.124Z,74.36
2023-01-04T05:31:21.839Z,74.32
2023-01-04T05:33:48.490Z,74.20
2023-01-04T05:36:15.066Z,74.53
2023-01-04T05:38:41.602Z,74.11
2023-01-04T05:41:28.489Z,74.08
2023-01-04T05:43:55.333Z,74.12
2023-01-04T05:46:22.311Z,73.84
2023-01-04T05:48:48.826Z,74.19
2023-01-04T05:51:15.339Z,74.09
2023-01-04T05:53:41.886Z,73.58
2023-01-04T05:56:08.542Z,73.81
2023-01-04T05:58:35.086Z,73.90
2023-01-04T06:01:01.572Z,73.62
2023-01-04T06:03:28.223Z,73.95
2023-01-04T06:05:54.889Z,74.08
2023-01-04T06:08:21.416Z,73.83
2023-01-04T06:10:54.347Z,73.83
2023-01-04T06:13:20.971Z,74.16
2023-01-04T06:15:47.523Z,73.58
2023-01-04T06:18:14.201Z,73.90
2023-01-04T06:20:43.389Z,74.00
2023-01-04T06:23:09.919Z,73.94
2023-01-04T06:25:37.403Z,74.20
2023-01-04T06:28:03.929Z,73.66
2023-01-04T06:30:30.481Z,73.33
2023-01-04T06:32:57.008Z,74.33
2023-01-04T06:35:23.484Z,74.17
2023-01-04T06:37:49.941Z,74.06
2023-01-04T06:40:16.456Z,73.98
2023-01-04T06:42:45.809Z,74.41
2023-01-04T06:45:14.818Z,74.27
2023-01-04T06:47:41.695Z,73.99
2023-01-04T06:50:09.791Z,73.86
2023-01-04T06:52:36.339Z,73.68
2023-01-04T06:55:03.069Z,73.46
2023-01-04T06:57:30.702Z,73.54
2023-01-04T06:59:57.226Z,73.05
2023-01-04T07:02:23.852Z,73.38
2023-01-04T07:04:50.501Z,73.39
2023-01-04T07:07:17.089Z,73.25
2023-01-04T07:09:43.609Z,73.41
2023-01-04T07:12:10.123Z,73.31
2023-01-04T07:14:36.610Z,73.71
2023-01-04T07:17:03.118Z,73.18
2023-01-04T07:19:29.648Z,73.19
2023-01-04T07:21:58.564Z,73.22
2023-01-04T07:24:30.005Z,73.45
2023-01-04T07:26:59.306Z,73.31
2023-01-04T07:29:26.244Z,73.47
2023-01-04T07:31:53.584Z,73.49
2023-01-04T07:34:24.497Z,73.14
2023-01-04T07:36:51.540Z,73.12
2023-01-04T07:39:19.611Z,72.80
2023-01-04T07:41:47.102Z,72.80
2023-01-04T07:44:14.372Z,72.89
2023-01-04T07:46:42.716Z,73.11
2023-01-04T07:49:17.908Z,73.00
2023-01-04T07:51:47.229Z,73.16
2023-01-04T07:54:16.521Z,73.31
2023-01-04T07:56:44.429Z,72.94
2023-01-04T07:59:12.844Z,72.83
2023-01-04T08:01:40.081Z,72.83
2023-01-04T08:04:09.682Z,72.84
2023-01-04T08:06:37.637Z,73.02
2023-01-04T08:09:06.287Z,73.00
2023-01-04T08:11:34.562Z,73.13
2023-01-04T08:14:01.298Z,73.11
2023-01-04T08:16:33.376Z,72.89
2023-01-04T08:19:04.764Z,72.93
2023-01-04T08:21:34.797Z,72.57
2023-01-04T08:24:02.149Z,72.58
2023-01-04T08:26:29.035Z,72.49
2023-01-04T08:28:56.724Z,72.73
2023-01-04T08:31:27.946Z,72.77
2023-01-04T08:33:57.272Z,72.84
2023-01-04T08:36:29.830Z,72.66
2023-01-04T08:39:04.855Z,72.76
2023-01-04T08:42:02.084Z,72.79
2023-01-04T08:44:29.591Z,73.32
2023-01-04T08:46:56.621Z,72.93
2023-01-04T08:49:24.650Z,72.78
2023-01-04T08:51:51.501Z,72.83
2023-01-04T08:54:18.335Z,72.58
2023-01-04T08:56:44.992Z,72.87
2023-01-04T08:59:13.654Z,73.04
2023-01-04T09:01:41.295Z,72.91
2023-01-04T09:04:08.664Z,72.53
2023-01-04T09:06:37.561Z,72.77
2023-01-04T09:09:04.282Z,72.93
2023-01-04T09:11:30.803Z,72.46
2023-01-04T09:14:06.815Z,72.43
2023-01-04T09:16:36.853Z,72.49
2023-01-04T09:19:03.861Z,72.72
2023-01-04T09:21:30.489Z,72.71
2023-01-04T09:23:58.712Z,73.52
2023-01-04T09:26:25.592Z,72.96
2023-01-04T09:28:55.150Z,72.98
2023-01-04T09:31:26.288Z,73.01
2023-01-04T09:36:41.557Z,72.99
2023-01-04T09:39:13.176Z,72.88
2023-01-04T09:41:58.664Z,72.59
2023-01-04T09:45:12.006Z,72.83
2023-01-04T09:47:51.897Z,72.43
2023-01-04T09:50:46.519Z,73.29
2023-01-04T09:53:42.909Z,73.17
2023-01-04T09:56:33.903Z,73.11
2023-01-04T09:59:05.565Z,73.17
2023-01-04T10:01:49.680Z,72.91
2023-01-04T10:04:28.870Z,72.92
2023-01-04T10:07:01.018Z,73.14
2023-01-04T10:09:31.238Z,73.38
2023-01-04T10:12:59.498Z,73.35
2023-01-04T10:16:06.362Z,73.43
2023-01-04T10:19:36.636Z,73.33
2023-01-04T10:21:53.976Z,73.26
2023-01-04T10:24:59.412Z,73.37
2023-01-04T10:27:53.373Z,72.94
2023-01-04T10:31:01.848Z,72.90
2023-01-04T10:34:00.119Z,73.54
2023-01-04T10:36:33.973Z,73.58
2023-01-04T10:39:12.772Z,73.24
2023-01-04T10:41:57.563Z,73.10
2023-01-04T10:44:37.543Z,73.23
2023-01-04T10:47:32.930Z,73.17
2023-01-04T10:50:11.252Z,73.21
2023-01-04T10:52:51.368Z,72.86
2023-01-04T10:56:26.475Z,73.30
2023-01-04T10:58:51.778Z,73.17
2023-01-04T11:01:32.333Z,73.21
2023-01-04T11:04:19.981Z,73.08
2023-01-04T11:06:56.943Z,73.14
2023-01-04T11:09:49.996Z,73.41
2023-01-04T11:12:21.346Z,72.82
2023-01-04T11:14:51.106Z,72.47
2023-01-04T11:17:21.329Z,72.41
2023-01-04T11:19:48.781Z,72.05
2023-01-04T11:22:36.139Z,72.05
2023-01-04T11:28:16.030Z,72.23
2023-01-04T11:30:59.350Z,72.44
2023-01-04T11:33:26.231Z,72.20
2023-01-04T11:35:58.708Z,72.23
2023-01-04T11:38:29.053Z,72.59
2023-01-04T11:41:16.015Z,72.80
2023-01-04T11:43:58.504Z,72.92
2023-01-04T11:46:27.535Z,73.17
2023-01-04T11:48:54.331Z,73.06
2023-01-04T11:51:25.291Z,72.59
2023-01-04T11:54:02.108Z,72.69
2023-01-04T11:56:37.022Z,72.64
2023-01-04T11:59:24.477Z,72.65
2023-01-04T12:02:11.946Z,72.90
2023-01-04T12:04:38.555Z,73.70
2023-01-04T12:07:35.367Z,73.54
2023-01-04T12:10:22.026Z,73.43
2023-01-04T12:12:48.618Z,73.74
2023-01-04T12:15:30.773Z,73.85
2023-01-04T12:18:35.627Z,74.16
2023-01-04T12:21:03.768Z,74.34
2023-01-04T12:23:31.136Z,74.30
2023-01-04T12:25:58.153Z,74.34
2023-01-04T12:28:47.109Z,73.87
2023-01-04T12:31:20.137Z,73.82
2023-01-04T12:34:23.329Z,73.87
2023-01-04T12:37:05.584Z,73.77
2023-01-04T12:39:47.470Z,73.60
2023-01-04T12:42:24.438Z,73.86
2023-01-04T12:44:51.947Z,73.86
2023-01-04T12:47:37.222Z,74.83
2023-01-04T12:50:15.677Z,74.43
2023-01-04T12:55:43.790Z,74.19
2023-01-04T12:58:58.134Z,74.21
2023-01-04T13:01:28.700Z,74.05
2023-01-04T13:04:29.273Z,74.19
2023-01-04T13:07:10.032Z,74.30
2023-01-04T13:09:48.565Z,74.10
2023-01-04T13:12:40.487Z,74.01
2023-01-04T13:15:21.650Z,73.78
2023-01-04T13:17:49.205Z,74.01
2023-01-04T13:20:22.335Z,73.95
2023-01-04T13:22:59.553Z,73.47
2023-01-04T13:25:26.731Z,73.85
2023-01-04T13:27:58.570Z,73.79
2023-01-04T13:30:43.159Z,73.70
2023-01-04T13:33:28.351Z,73.53
2023-01-04T13:36:04.218Z,73.33
2023-01-04T13:38:34.224Z,73.46
2023-01-04T13:41:00.819Z,73.72
2023-01-04T13:43:51.500Z,73.85
2023-01-04T13:46:27.207Z,73.67
2023-01-04T13:49:01.825Z,73.85
2023-01-04T13:51:37.841Z,73.64
2023-01-04T13:54:19.039Z,73.61
2023-01-04T13:56:51.482Z,74.29
2023-01-04T13:59:21.721Z,74.28
2023-01-04T14:01:50.123Z,74.27
2023-01-04T14:04:28.441Z,73.92
2023-01-04T14:06:59.900Z,73.75
2023-01-04T14:09:42.086Z,73.77
2023-01-04T14:12:19.903Z,73.93
2023-01-04T14:15:02.666Z,74.21
2023-01-04T14:17:48.932Z,74.02
2023-01-04T14:20:15.379Z,74.40
2023-01-04T14:22:44.713Z,74.84
2023-01-04T14:25:49.311Z,75.32
2023-01-04T14:28:29.317Z,74.97
2023-01-04T14:30:58.775Z,74.59
2023-01-04T14:33:32.913Z,74.32
2023-01-04T14:36:32.544Z,74.35
2023-01-04T14:39:08.183Z,74.35
2023-01-04T14:41:52.042Z,74.60
2023-01-04T14:44:28.116Z,74.29
2023-01-04T14:46:58.839Z,74.34
2023-01-04T14:49:28.374Z,74.81
2023-01-04T14:52:08.979Z,74.47
2023-01-04T14:54:39.010Z,74.36
2023-01-04T14:57:05.717Z,74.22
2023-01-04T14:59:32.234Z,74.15
2023-01-04T15:01:58.945Z,74.42
2023-01-04T15:04:25.668Z,74.44
2023-01-04T15:06:58.268Z,74.69
2023-01-04T15:09:25.146Z,74.49
2023-01-04T15:11:51.759Z,74.70
2023-01-04T15:14:18.753Z,74.24
2023-01-04T15:16:45.659Z,74.72
2023-01-04T15:19:12.429Z,74.40
2023-01-04T15:21:41.481Z,74.25
2023-01-04T15:24:09.724Z,74.32
2023-01-04T15:26:36.439Z,74.73
2023-01-04T15:29:06.510Z,74.79
2023-01-04T15:31:38.955Z,74.42
2023-01-04T15:34:06.524Z,74.43
2023-01-04T15:36:33.175Z,73.89
2023-01-04T15:38:59.646Z,73.87
2023-01-04T15:41:44.710Z,74.59
2023-01-04T15:44:11.836Z,74.63
2023-01-04T15:46:38.645Z,74.78
2023-01-04T15:49:05.412Z,74.53
2023-01-04T15:51:32.048Z,74.84
2023-01-04T15:53:58.645Z,75.02
2023-01-04T15:56:26.552Z,74.88
2023-01-04T15:58:55.016Z,74.76
2023-01-04T16:01:22.436Z,74.36
2023-01-04T16:03:53.377Z,74.84
2023-01-04T16:06:20.550Z,75.11
2023-01-04T16:08:48.769Z,74.88
2023-01-04T16:11:20.147Z,75.03
2023-01-04T16:13:49.473Z,75.26
2023-01-04T16:16:18.433Z,75.00
2023-01-04T16:18:48.307Z,74.93
2023-01-04T16:21:20.129Z,74.58
2023-01-04T16:24:03.920Z,75.14
2023-01-04T16:26:32.066Z,75.10
2023-01-04T16:29:00.555Z,75.06
2023-01-04T16:31:32.024Z,75.07
2023-01-04T16:33:58.565Z,74.82
2023-01-04T16:36:25.419Z,74.86
2023-01-04T16:38:51.868Z,75.13
2023-01-04T16:41:21.243Z,74.77
2023-01-04T16:43:55.094Z,74.86
2023-01-04T16:46:25.556Z,74.99
2023-01-04T16:48:56.995Z,74.97
2023-01-04T16:51:26.457Z,75.22
2023-01-04T16:53:54.918Z,75.07
2023-01-04T16:56:23.886Z,75.13
2023-01-04T16:58:51.537Z,75.26
2023-01-04T17:01:27.970Z,75.82
2023-01-04T17:03:57.623Z,77.02
2023-01-04T17:06:29.120Z,75.92
2023-01-04T17:08:57.559Z,75.87
2023-01-04T17:12:19.175Z,75.68
2023-01-04T17:14:33.520Z,75.24
2023-01-04T17:17:00.832Z,75.43
2023-01-04T17:19:27.415Z,75.29
2023-01-04T17:21:53.942Z,75.44
2023-01-04T17:24:20.562Z,75.79
2023-01-04T17:26:47.474Z,75.22
2023-01-04T17:29:14.927Z,75.48
2023-01-04T17:31:44.978Z,75.58
2023-01-04T17:34:22.623Z,75.22
2023-01-04T17:36:50.134Z,76.23
2023-01-04T17:39:16.636Z,76.44
2023-01-04T17:41:43.417Z,75.56
2023-01-04T17:44:10.462Z,75.61
2023-01-04T17:46:38.117Z,76.02
2023-01-04T17:49:30.525Z,75.50
2023-01-04T17:51:55.755Z,75.72
2023-01-04T17:54:23.018Z,76.18
2023-01-04T17:56:49.604Z,77.26
2023-01-04T17:59:16.209Z,77.38
2023-01-04T18:01:42.825Z,76.63
2023-01-04T18:04:09.443Z,76.02
2023-01-04T18:06:37.401Z,75.54
2023-01-04T18:09:07.020Z,75.90
2023-01-04T18:11:35.156Z,75.90
2023-01-04T18:14:05.924Z,77.81
2023-01-04T18:16:56.204Z,78.43
2023-01-04T18:19:28.810Z,78.82
2023-01-04T18:21:58.800Z,78.01
2023-01-04T18:24:41.690Z,78.15
2023-01-04T18:27:27.495Z,77.55
2023-01-04T18:29:56.221Z,77.29
2023-01-04T18:32:24.940Z,76.50
2023-01-04T18:34:51.526Z,76.38
2023-01-04T18:37:18.536Z,75.89
2023-01-04T18:39:45.855Z,75.42
2023-01-04T18:42:12.351Z,76.16
2023-01-04T18:44:45.576Z,76.01
2023-01-04T18:47:14.515Z,76.19
2023-01-04T18:49:41.045Z,75.53
2023-01-04T18:52:07.593Z,75.45
2023-01-04T18:54:34.138Z,74.30
2023-01-04T18:57:01.624Z,74.68
2023-01-04T18:59:31.905Z,75.50
2023-01-04T19:02:01.593Z,75.31
2023-01-04T19:04:34.211Z,74.17
2023-01-04T19:07:02.037Z,74.55
2023-01-04T19:09:28.852Z,74.28
2023-01-04T19:11:55.396Z,74.14
2023-01-04T19:14:22.132Z,74.08
2023-01-04T19:16:48.643Z,74.26
2023-01-04T19:19:15.195Z,73.80
2023-01-04T19:21:41.755Z,74.11
2023-01-04T19:24:08.556Z,73.36
2023-01-04T19:26:35.250Z,73.18
2023-01-04T19:29:03.387Z,73.26
2023-01-04T19:31:30.193Z,73.20
2023-01-04T19:33:56.775Z,72.04
2023-01-04T19:36:23.493Z,72.70
2023-01-04T19:38:50.068Z,72.47
2023-01-04T19:41:29.137Z,72.45
2023-01-04T19:44:02.500Z,72.56
2023-01-04T19:46:29.126Z,71.97
2023-01-04T19:48:56.014Z,71.45
2023-01-04T19:51:23.741Z,71.97
2023-01-04T19:53:51.591Z,72.08
2023-01-04T19:56:18.087Z,71.98
2023-01-04T19:58:44.624Z,71.63
2023-01-04T20:01:16.933Z,71.01
2023-01-04T20:03:43.767Z,70.78
2023-01-04T20:06:12.099Z,70.94
2023-01-04T20:08:39.839Z,70.86
2023-01-04T20:11:07.807Z,71.55
2023-01-04T20:13:34.867Z,71.43
2023-01-04T20:16:06.498Z,71.90
2023-01-04T20:18:34.753Z,72.28
2023-01-04T20:21:01.452Z,71.81
2023-01-04T20:23:28.033Z,71.71
2023-01-04T20:25:54.842Z,71.74
2023-01-04T20:28:24.355Z,71.75
2023-01-04T20:31:03.455Z,71.30
2023-01-04T20:33:31.063Z,71.37
2023-01-04T20:35:57.671Z,71.57
2023-01-04T20:38:24.194Z,71.71
2023-01-04T20:40:50.682Z,71.23
2023-01-04T20:43:37.118Z,70.98
2023-01-04T20:46:10.661Z,71.18
2023-01-04T20:48:37.263Z,70.62
2023-01-04T20:51:20.220Z,70.15
2023-01-04T20:53:47.113Z,70.96
2023-01-04T20:56:23.541Z,70.60
2023-01-04T20:58:51.404Z,70.56
2023-01-04T21:01:20.532Z,70.75
2023-01-04T21:03:48.076Z,70.21
2023-01-04T21:06:17.513Z,69.99
2023-01-04T21:08:45.840Z,69.19
2023-01-04T21:11:14.130Z,68.46
2023-01-04T21:13:41.224Z,69.17
2023-01-04T21:16:08.623Z,69.26
2023-01-04T21:18:35.234Z,69.54
2023-01-04T21:21:18.660Z,68.59
2023-01-04T21:23:45.992Z,68.85
2023-01-04T21:26:16.691Z,68.35
2023-01-04T21:28:45.085Z,68.63
2023-01-04T21:31:21.892Z,68.42
2023-01-04T21:33:48.410Z,68.76
2023-01-04T21:36:25.236Z,67.56
2023-01-04T21:38:54.836Z,67.42
2023-01-04T21:41:24.632Z,68.02
2023-01-04T21:43:58.006Z,68.23
2023-01-04T21:46:26.098Z,67.74
2023-01-04T21:48:58.125Z,67.57
2023-01-04T21:51:25.347Z,67.55
2023-01-04T21:53:52.037Z,68.00
2023-01-04T21:56:22.301Z,68.79
2023-01-04T21:58:49.115Z,67.97
2023-01-04T22:01:21.489Z,67.77
2023-01-04T22:03:48.235Z,67.64
2023-01-04T22:06:15.235Z,67.41
2023-01-04T22:08:46.464Z,68.27
2023-01-04T22:11:14.744Z,67.88
2023-01-04T22:13:41.609Z,67.97
2023-01-04T22:16:14.953Z,68.48
2023-01-04T22:18:44.760Z,68.17
2023-01-04T22:21:14.194Z,68.11
2023-01-04T22:23:40.894Z,67.87
2023-01-04T22:26:07.591Z,68.15
2023-01-04T22:28:36.987Z,68.33
2023-01-04T22:31:09.843Z,68.27
2023-01-04T22:33:37.552Z,68.11
2023-01-04T22:36:12.719Z,67.87
2023-01-04T22:38:43.855Z,67.66
2023-01-04T22:41:15.924Z,68.01
2023-01-04T22:43:43.679Z,67.85
2023-01-04T22:46:18.181Z,67.24
2023-01-04T22:48:45.797Z,67.99
2023-01-04T22:51:16.564Z,67.97
2023-01-04T22:53:44.122Z,68.12
2023-01-04T22:56:19.522Z,68.00
2023-01-04T22:58:53.360Z,67.59
2023-01-04T23:01:27.537Z,67.88
2023-01-04T23:03:55.511Z,68.45
2023-01-04T23:06:23.635Z,68.25
2023-01-04T23:09:00.391Z,68.37
2023-01-04T23:11:30.309Z,68.50
2023-01-04T23:13:57.904Z,67.98
2023-01-04T23:16:31.955Z,68.45
2023-01-04T23:18:59.707Z,67.49
2023-01-04T23:21:26.226Z,68.09
2023-01-04T23:23:52.758Z,68.01
2023-01-04T23:26:23.277Z,68.44
2023-01-04T23:28:50.384Z,68.24
2023-01-04T23:31:22.805Z,68.81
2023-01-04T23:33:56.354Z,68.49
2023-01-04T23:36:27.771Z,68.85
2023-01-04T23:38:58.184Z,68.81
2023-01-04T23:41:44.492Z,68.22
2023-01-04T23:44:25.156Z,68.76
2023-01-04T23:47:01.235Z,68.70
2023-01-04T23:49:31.555Z,68.64
2023-01-04T23:51:58.957Z,68.26
2023-01-04T23:54:26.050Z,68.12
2023-01-04T23:56:53.103Z,68.21
2023-01-04T23:59:20.967Z,67.84
